This is the latest recevied weather packets stored in our database for station/object EA4BCR. If no packets are shown the sender has not sent any weather packets the latest 10 day(s).
| Time | Temp. | Humidity | Pressure | Rain* | Wind** | Luminosity | Snow |
|---|---|---|---|---|---|---|---|
| 1788110418 | 30.56° C | 21% | 1011.7 hPa | - | - | - | - |
| 1788109818 | 30.56° C | 22% | 1011.7 hPa | - | - | - | - |
| 1788109218 | 30.56° C | 22% | 1011.6 hPa | - | - | - | - |
| 1788108618 | 31.11° C | 21% | 1011.5 hPa | - | - | - | - |
| 1788108018 | 31.67° C | 20% | 1011.3 hPa | - | - | - | - |
| 1788107418 | 31.11° C | 20% | 1011.5 hPa | - | - | - | - |
| 1788106818 | 31.11° C | 20% | 1011.5 hPa | - | - | - | - |
| 1788106218 | 31.67° C | 19% | 1011.3 hPa | - | - | - | - |
| 1788105618 | 31.67° C | 19% | 1011.2 hPa | - | - | - | - |
| 1788105018 | 31.67° C | 19% | 1011.4 hPa | - | - | - | - |
| 1788104418 | 32.22° C | 20% | 1011 hPa | - | - | - | - |
| 1788103818 | 32.22° C | 18% | 1011.1 hPa | - | - | - | - |
| 1788103218 | 32.22° C | 18% | 1011.1 hPa | - | - | - | - |
| 1788102618 | 31.67° C | 21% | 1011.4 hPa | - | - | - | - |
| 1788102018 | 32.78° C | 19% | 1011.1 hPa | - | - | - | - |
| 1788101418 | 32.22° C | 20% | 1011.4 hPa | - | - | - | - |
| 1788100818 | 32.78° C | 20% | 1011.2 hPa | - | - | - | - |
| 1788100218 | 32.78° C | 20% | 1011.3 hPa | - | - | - | - |
| 1788099618 | 32.78° C | 19% | 1011.3 hPa | - | - | - | - |
| 1788099018 | 32.22° C | 20% | 1011.7 hPa | - | - | - | - |
| 1788098418 | 32.78° C | 20% | 1011.6 hPa | - | - | - | - |
| 1788097817 | 32.22° C | 24% | 1011.9 hPa | - | - | - | - |
| 1788097218 | 32.22° C | 20% | 1011.9 hPa | - | - | - | - |
| 1788096618 | 31.67° C | 20% | 1012.3 hPa | - | - | - | - |
| 1788096018 | 31.67° C | 20% | 1012.3 hPa | - | - | - | - |
* Rain since midnight (hover to see other rain measurements)
** Current wind speed in m/s (hover to see current wind gust speed)